Time;durP1;ratioP1;P1;durP2;ratioP2;P2;SDS_P1;SDS_P2;PMS_P1;PMS_P2;Temp;Humidity;BMP_temperature;BMP_pressure;BME280_temperature;BME280_humidity;BME280_pressure;Samples;Min_cycle;Max_cycle;Signal;HPM_P1;HPM_P2
2021/08/16 00:02:07;;;;;;;;;4.00;3.00;;;;;23.61;49.10;101037.81;5001625;28;45311;-81
2021/08/16 00:04:33;;;;;;;;;4.00;3.00;;;;;23.66;48.95;101043.75;5001610;28;46506;-84
2021/08/16 00:06:58;;;;;;;;;3.00;3.00;;;;;23.65;49.00;101042.00;5001353;28;46060;-80
2021/08/16 00:09:24;;;;;;;;;2.25;2.25;;;;;23.66;48.74;101042.88;5001514;28;45236;-82
2021/08/16 00:11:49;;;;;;;;;3.25;3.25;;;;;23.63;48.52;101048.59;5001609;28;45360;-82
2021/08/16 00:14:14;;;;;;;;;3.50;3.00;;;;;23.62;48.51;101047.72;5001566;28;45308;-80
2021/08/16 00:16:40;;;;;;;;;2.75;1.75;;;;;23.58;48.33;101040.78;5001305;28;46458;-82
2021/08/16 00:19:05;;;;;;;;;2.00;2.00;;;;;23.56;48.12;101053.69;5001665;28;45252;-82
2021/08/16 00:21:31;;;;;;;;;1.00;1.00;;;;;23.53;48.01;101048.47;5001634;28;45280;-81
2021/08/16 00:23:56;;;;;;;;;2.00;2.00;;;;;23.49;47.94;101047.00;5001184;28;45240;-81
2021/08/16 00:26:22;;;;;;;;;4.00;3.00;;;;;23.49;47.92;101045.16;5000864;28;48263;-81
2021/08/16 00:28:47;;;;;;;;;4.75;3.00;;;;;23.44;48.07;101035.63;5001228;28;45225;-83
2021/08/16 00:31:12;;;;;;;;;2.00;2.00;;;;;23.46;47.76;101045.41;5001291;28;45224;-81
2021/08/16 00:33:38;;;;;;;;;2.00;2.00;;;;;23.45;47.69;101042.78;5001240;28;45204;-82
2021/08/16 00:36:03;;;;;;;;;1.25;1.25;;;;;23.41;47.43;101035.88;5000958;28;45310;-81
2021/08/16 00:38:29;;;;;;;;;3.00;3.00;;;;;23.40;47.31;101034.13;5001089;28;45307;-83
2021/08/16 00:40:54;;;;;;;;;1.00;1.00;;;;;23.41;47.37;101039.47;5001013;28;45529;-81
2021/08/16 00:43:20;;;;;;;;;1.50;1.50;;;;;23.36;47.24;101029.94;5000952;28;45438;-80
2021/08/16 00:45:46;;;;;;;;;2.50;1.00;;;;;23.40;47.30;101040.44;5000756;28;46231;-81
2021/08/16 00:48:11;;;;;;;;;2.50;2.00;;;;;23.38;47.17;101031.53;5001022;28;45340;-81
2021/08/16 00:50:37;;;;;;;;;1.00;1.00;;;;;23.40;47.38;101035.00;5000954;28;45530;-82
2021/08/16 00:53:03;;;;;;;;;2.75;0.25;;;;;23.38;47.33;101031.53;5000740;28;45335;-82
2021/08/16 00:55:28;;;;;;;;;2.00;0.75;;;;;23.41;47.06;101036.72;5000530;28;45391;-83
2021/08/16 00:57:55;;;;;;;;;1.25;1.25;;;;;23.40;47.03;101032.25;5000751;28;45306;-81
2021/08/16 01:00:20;;;;;;;;;1.50;1.25;;;;;23.39;47.07;101038.72;5001096;28;45257;-83
2021/08/16 01:02:46;;;;;;;;;2.50;1.00;;;;;23.35;46.88;101029.06;5000726;28;45205;-80
2021/08/16 01:05:14;;;;;;;;;2.75;2.00;;;;;23.36;46.92;101027.22;5000559;28;46208;-81
2021/08/16 01:07:41;;;;;;;;;1.00;1.00;;;;;23.35;46.74;101018.16;5000437;28;45189;-81
2021/08/16 01:10:08;;;;;;;;;4.00;1.50;;;;;23.34;46.79;101021.91;5000581;28;45306;-82
2021/08/16 01:12:35;;;;;;;;;1.00;1.00;;;;;23.30;46.75;101023.13;4999788;28;45298;-81
2021/08/16 01:15:01;;;;;;;;;2.00;2.00;;;;;23.30;46.95;101029.47;5000431;28;46146;-82
2021/08/16 01:17:27;;;;;;;;;2.00;1.00;;;;;23.29;46.98;101033.16;5000714;28;45386;-81
2021/08/16 01:19:53;;;;;;;;;4.00;2.25;;;;;23.28;46.99;101027.84;5000512;28;45401;-83
2021/08/16 01:22:21;;;;;;;;;1.00;1.00;;;;;23.25;46.89;101028.06;5000174;28;45485;-81
2021/08/16 01:24:46;;;;;;;;;2.75;1.00;;;;;23.22;47.18;101026.50;5000212;28;45331;-81
2021/08/16 01:27:12;;;;;;;;;1.25;1.00;;;;;23.22;46.92;101022.88;5000278;28;45327;-82
2021/08/16 01:29:39;;;;;;;;;3.50;2.00;;;;;23.23;47.14;101028.19;5000503;28;45391;-82
2021/08/16 01:32:05;;;;;;;;;1.50;1.50;;;;;23.20;47.07;101023.00;5000406;28;45445;-82
2021/08/16 01:34:31;;;;;;;;;1.75;1.00;;;;;23.23;47.06;101032.78;5000074;28;46078;-83
2021/08/16 01:36:58;;;;;;;;;2.50;0.75;;;;;23.22;47.04;101034.66;5000086;28;45229;-81
2021/08/16 01:39:24;;;;;;;;;2.00;1.00;;;;;23.20;47.09;101025.72;5000255;28;45439;-81
2021/08/16 01:41:50;;;;;;;;;1.50;1.50;;;;;23.18;47.08;101026.84;5000340;28;45288;-83
2021/08/16 01:44:17;;;;;;;;;3.00;1.00;;;;;23.16;47.30;101035.16;4999766;28;45433;-81
2021/08/16 01:46:43;;;;;;;;;1.50;1.50;;;;;23.19;47.21;101039.47;5000159;28;45373;-82
2021/08/16 01:49:09;;;;;;;;;0.75;0.75;;;;;23.17;47.02;101036.88;5000135;28;45340;-82
2021/08/16 01:51:35;;;;;;;;;1.00;1.00;;;;;23.17;47.38;101041.44;5000231;28;45487;-82
2021/08/16 01:54:01;;;;;;;;;1.00;1.00;;;;;23.15;47.13;101033.41;4999713;28;46341;-83
2021/08/16 01:56:26;;;;;;;;;2.00;2.00;;;;;23.11;47.19;101037.38;4999887;28;45287;-82
2021/08/16 01:58:52;;;;;;;;;3.00;0.00;;;;;23.11;46.77;101037.38;5000064;28;45280;-81
2021/08/16 02:01:17;;;;;;;;;2.00;2.00;;;;;23.07;47.01;101028.59;5000255;28;45249;-82
2021/08/16 02:03:42;;;;;;;;;1.25;1.25;;;;;23.01;47.04;101026.31;4999634;28;45384;-82
2021/08/16 02:06:08;;;;;;;;;1.00;0.75;;;;;22.99;47.06;101030.16;4999919;28;45251;-82
2021/08/16 02:08:33;;;;;;;;;4.00;3.00;;;;;22.99;47.23;101027.44;4997336;28;45201;-82
2021/08/16 02:10:59;;;;;;;;;1.00;1.00;;;;;22.98;47.13;101029.28;4999715;28;52042;-82
2021/08/16 02:13:24;;;;;;;;;1.50;1.50;;;;;22.98;47.62;101037.44;4999666;28;46082;-83
2021/08/16 02:15:49;;;;;;;;;2.00;1.25;;;;;22.96;47.48;101039.44;4999851;28;45253;-81
2021/08/16 02:18:15;;;;;;;;;1.00;1.00;;;;;22.94;47.32;101030.53;4999862;28;45171;-82
2021/08/16 02:20:40;;;;;;;;;1.75;1.00;;;;;22.96;47.72;101027.69;4999851;28;45426;-82
2021/08/16 02:23:06;;;;;;;;;1.00;1.00;;;;;22.97;47.64;101034.84;5000910;28;45503;-81
2021/08/16 02:25:31;;;;;;;;;2.00;1.50;;;;;22.94;47.52;101031.41;5003173;28;45387;-81
2021/08/16 02:27:56;;;;;;;;;2.75;1.75;;;;;22.94;47.33;101036.84;5003109;28;45268;-82
2021/08/16 02:30:22;;;;;;;;;1.50;1.50;;;;;22.92;47.73;101032.50;5003210;28;45379;-80
2021/08/16 02:32:48;;;;;;;;;2.25;1.00;;;;;22.92;47.71;101030.66;5002676;28;46368;-80
2021/08/16 02:35:14;;;;;;;;;2.00;1.00;;;;;22.90;47.62;101029.94;5003038;28;45839;-81
2021/08/16 02:37:40;;;;;;;;;2.00;2.00;;;;;22.89;47.80;101038.22;5002872;28;45376;-80
2021/08/16 02:40:07;;;;;;;;;1.00;1.00;;;;;22.87;47.77;101040.16;5003076;28;45165;-80
2021/08/16 02:42:32;;;;;;;;;1.50;1.00;;;;;22.84;48.17;101035.00;5002627;28;46364;-81
2021/08/16 02:44:58;;;;;;;;;4.25;2.00;;;;;22.84;47.95;101030.41;5002966;28;45224;-82
2021/08/16 02:47:23;;;;;;;;;2.50;2.00;;;;;22.82;47.90;101020.63;5002764;28;45259;-81
2021/08/16 02:49:49;;;;;;;;;1.50;1.50;;;;;22.84;48.04;101021.38;5002829;28;45482;-80
2021/08/16 02:52:19;;;;;;;;;1.00;1.00;;;;;22.82;48.37;101029.66;5002344;28;46428;-81
2021/08/16 02:54:45;;;;;;;;;3.00;2.00;;;;;22.84;48.50;101030.41;5002672;28;45260;-80
2021/08/16 02:57:12;;;;;;;;;2.00;2.00;;;;;22.82;48.40;101031.50;5002567;28;45299;-81
2021/08/16 02:59:41;;;;;;;;;2.00;2.00;;;;;22.80;48.26;101028.91;5002603;28;45509;-81
2021/08/16 03:02:08;;;;;;;;;3.50;1.50;;;;;22.82;48.40;101029.66;5002393;28;45811;-81
2021/08/16 03:04:34;;;;;;;;;3.50;1.75;;;;;22.79;48.32;101018.13;5002488;28;45586;-82
2021/08/16 03:07:00;;;;;;;;;1.50;1.25;;;;;22.84;48.44;101035.00;5002289;28;45316;-81
2021/08/16 03:09:27;;;;;;;;;4.25;2.00;;;;;22.84;48.58;101030.41;5002704;28;45222;-82
2021/08/16 03:11:53;;;;;;;;;4.00;2.00;;;;;22.85;48.90;101040.28;5002258;28;46200;-80
2021/08/16 03:14:18;;;;;;;;;1.25;1.25;;;;;22.78;48.88;101025.44;5002474;28;45255;-81
2021/08/16 03:16:44;;;;;;;;;2.25;1.25;;;;;22.82;48.81;101031.50;5002360;28;45261;-80
2021/08/16 03:19:09;;;;;;;;;2.00;2.00;;;;;22.82;48.89;101040.56;5002552;28;45170;-80
2021/08/16 03:21:34;;;;;;;;;2.75;2.00;;;;;22.81;49.05;101033.38;5002134;28;45344;-81
2021/08/16 03:24:00;;;;;;;;;3.00;3.00;;;;;22.80;49.09;101034.34;5002061;28;45270;-81
2021/08/16 03:26:25;;;;;;;;;2.00;2.00;;;;;22.73;49.39;101035.81;5002275;28;45393;-81
2021/08/16 03:28:51;;;;;;;;;2.00;1.50;;;;;22.76;49.59;101038.31;5002199;28;45296;-82
2021/08/16 03:31:16;;;;;;;;;3.00;2.00;;;;;22.75;49.46;101036.56;5002020;28;46072;-81
2021/08/16 03:33:42;;;;;;;;;4.00;3.00;;;;;22.71;49.69;101027.78;5001372;28;45316;-81
2021/08/16 03:36:07;;;;;;;;;3.00;2.00;;;;;22.68;49.91;101030.75;5001845;28;45418;-80
2021/08/16 03:38:32;;;;;;;;;1.00;1.00;;;;;22.67;49.75;101025.41;5001949;28;45312;-82
2021/08/16 03:40:58;;;;;;;;;2.75;2.75;;;;;22.65;49.91;101027.41;5001724;28;45452;-80
2021/08/16 03:43:23;;;;;;;;;4.00;2.00;;;;;22.62;49.58;101024.91;5001974;28;45429;-82
2021/08/16 03:45:49;;;;;;;;;4.25;2.25;;;;;22.61;50.07;101017.75;5001943;28;45461;-79
2021/08/16 03:48:15;;;;;;;;;1.50;1.25;;;;;22.58;49.88;101027.88;5001726;28;45269;-81
2021/08/16 03:50:41;;;;;;;;;6.25;3.25;;;;;22.55;50.03;101028.13;5001632;28;46573;-81
2021/08/16 03:53:06;;;;;;;;;5.50;3.00;;;;;22.54;49.88;101018.22;5001548;28;45470;-81
2021/08/16 03:55:32;;;;;;;;;1.75;1.75;;;;;22.46;49.92;101011.66;5001686;28;45228;-81
2021/08/16 03:57:57;;;;;;;;;2.50;2.00;;;;;22.50;50.28;101024.91;5001711;28;45219;-80
2021/08/16 04:00:23;;;;;;;;;3.25;2.25;;;;;22.51;49.81;101031.22;5001567;28;45212;-81
2021/08/16 04:02:48;;;;;;;;;5.00;3.75;;;;;22.50;50.05;101027.63;5001464;28;45237;-80
2021/08/16 04:05:14;;;;;;;;;3.00;1.00;;;;;22.47;50.00;101024.25;5001650;28;45236;-80
2021/08/16 04:07:43;;;;;;;;;2.25;2.00;;;;;22.44;50.06;101025.38;5001295;28;45566;-81
2021/08/16 04:10:10;;;;;;;;;2.00;1.75;;;;;22.39;50.57;101024.88;5001298;28;46951;-81
2021/08/16 04:12:35;;;;;;;;;2.50;2.00;;;;;22.37;50.37;101024.13;5001501;28;45220;-80
2021/08/16 04:15:04;;;;;;;;;3.00;2.00;;;;;22.37;49.95;101026.84;5001595;28;45277;-80
2021/08/16 04:17:29;;;;;;;;;4.25;2.00;;;;;22.37;49.99;101035.88;5001334;28;45422;-79
2021/08/16 04:19:55;;;;;;;;;3.75;1.25;;;;;22.35;50.23;101035.13;5001305;28;45272;-81
2021/08/16 04:22:20;;;;;;;;;2.00;2.00;;;;;22.33;50.65;101030.78;5001127;28;45646;-81
2021/08/16 04:24:45;;;;;;;;;2.00;2.00;;;;;22.30;49.80;101039.19;5001316;28;45309;-80
2021/08/16 04:27:11;;;;;;;;;2.00;2.00;;;;;22.29;49.84;101029.31;5001099;28;45383;-81
2021/08/16 04:29:36;;;;;;;;;1.00;1.00;;;;;22.27;49.83;101036.66;5001071;28;46126;-81
2021/08/16 04:32:02;;;;;;;;;2.00;2.00;;;;;22.24;49.75;101042.34;5001217;28;45319;-82
2021/08/16 04:34:27;;;;;;;;;3.75;2.00;;;;;22.24;50.08;101039.63;5001087;28;45324;-80
2021/08/16 04:36:52;;;;;;;;;2.00;1.00;;;;;22.19;49.93;101034.53;5001006;28;45319;-81
2021/08/16 04:39:17;;;;;;;;;2.00;2.00;;;;;22.13;50.46;101044.03;5000861;28;46262;-81
2021/08/16 04:41:43;;;;;;;;;3.00;1.50;;;;;22.10;50.56;101036.13;5001093;28;45344;-81
2021/08/16 04:44:08;;;;;;;;;2.00;0.75;;;;;22.12;50.63;101044.13;5000982;28;45407;-80
2021/08/16 04:46:33;;;;;;;;;2.00;2.00;;;;;22.08;50.26;101038.06;5000899;28;45299;-80
2021/08/16 04:48:59;;;;;;;;;2.75;1.00;;;;;22.11;50.32;101043.28;5000818;28;46098;-80
2021/08/16 04:51:24;;;;;;;;;4.00;1.00;;;;;22.11;50.59;101042.41;5000939;28;45314;-81
2021/08/16 04:53:49;;;;;;;;;2.50;0.00;;;;;22.10;49.91;101043.41;5000793;28;45389;-82
2021/08/16 04:56:15;;;;;;;;;1.25;1.00;;;;;22.05;49.75;101037.44;5000713;28;45422;-80
2021/08/16 04:58:40;;;;;;;;;2.50;2.00;;;;;22.02;50.26;101033.97;5000642;28;45833;-81
2021/08/16 05:01:05;;;;;;;;;1.00;1.00;;;;;22.06;50.35;101037.31;5000961;28;45375;-80
2021/08/16 05:03:31;;;;;;;;;1.50;1.00;;;;;22.06;49.87;101044.63;5000670;28;45391;-82
2021/08/16 05:06:04;;;;;;;;;1.75;1.00;;;;;21.96;50.51;101033.59;5000779;28;45244;-80
2021/08/16 05:08:29;;;;;;;;;3.50;1.75;;;;;21.98;50.27;101042.47;5000259;28;46146;-80
2021/08/16 05:10:54;;;;;;;;;1.50;1.50;;;;;21.97;50.53;101046.19;5000719;28;48439;-80
2021/08/16 05:13:20;;;;;;;;;0.50;0.50;;;;;21.95;50.66;101045.41;5000396;28;45492;-81
2021/08/16 05:15:45;;;;;;;;;1.00;1.00;;;;;21.98;50.83;101053.34;5000702;28;45412;-81
2021/08/16 05:18:11;;;;;;;;;2.00;1.00;;;;;21.92;50.26;101042.94;5000226;28;46017;-81
2021/08/16 05:20:37;;;;;;;;;0.00;0.00;;;;;21.96;50.42;101058.03;5000800;28;45345;-81
2021/08/16 05:23:04;;;;;;;;;1.00;1.00;;;;;21.95;50.58;101056.28;5000187;28;45456;-81
2021/08/16 05:25:30;;;;;;;;;1.25;1.25;;;;;21.91;50.36;101061.09;5000483;28;45441;-80
2021/08/16 05:27:55;;;;;;;;;0.75;0.75;;;;;21.91;50.36;101071.97;5000121;28;45697;-82
2021/08/16 05:30:21;;;;;;;;;2.25;1.00;;;;;21.86;50.79;101066.00;5000402;28;45292;-80
2021/08/16 05:32:47;;;;;;;;;0.00;0.00;;;;;21.84;50.56;101065.28;5000324;28;45401;-81
2021/08/16 05:35:13;;;;;;;;;1.00;0.00;;;;;21.82;51.00;101075.38;5000463;28;45286;-81
2021/08/16 05:37:38;;;;;;;;;1.00;0.75;;;;;21.79;50.86;101070.19;4999877;28;46310;-80
2021/08/16 05:40:05;;;;;;;;;1.25;1.00;;;;;21.78;51.08;101080.16;5000446;28;45306;-79
2021/08/16 05:42:30;;;;;;;;;1.75;1.25;;;;;21.79;50.91;101089.19;5000087;28;45288;-82
2021/08/16 05:44:55;;;;;;;;;1.00;1.00;;;;;21.78;51.04;101082.88;5000337;28;45355;-81
2021/08/16 05:47:21;;;;;;;;;1.75;1.00;;;;;21.73;50.71;101081.50;4999895;28;46076;-79
2021/08/16 05:49:46;;;;;;;;;1.25;1.00;;;;;21.73;50.88;101095.06;5000281;28;45361;-81
2021/08/16 05:52:11;;;;;;;;;2.25;1.00;;;;;21.70;50.88;101095.31;4999869;28;45331;-79
2021/08/16 05:54:37;;;;;;;;;1.00;1.00;;;;;21.72;51.26;101093.34;5000200;28;45217;-80
2021/08/16 05:57:03;;;;;;;;;2.75;1.00;;;;;21.68;50.83;101083.69;4999895;28;45167;-81
2021/08/16 05:59:28;;;;;;;;;0.00;0.00;;;;;21.69;50.66;101093.59;5003864;28;45408;-80
2021/08/16 06:01:54;;;;;;;;;2.00;0.75;;;;;21.69;51.30;101090.88;5003565;28;45573;-82
2021/08/16 06:04:19;;;;;;;;;2.00;2.00;;;;;21.68;50.75;101094.56;5003415;28;45466;-81
2021/08/16 06:06:45;;;;;;;;;1.00;1.00;;;;;21.65;51.13;101092.91;5003034;28;46429;-80
2021/08/16 06:09:10;;;;;;;;;0.00;0.00;;;;;21.67;50.95;101093.69;5003489;28;45265;-79
2021/08/16 06:11:35;;;;;;;;;1.00;1.00;;;;;21.67;50.96;101093.69;5003424;28;45308;-81
2021/08/16 06:14:01;;;;;;;;;1.75;1.00;;;;;21.65;50.92;101092.91;5003260;28;45602;-79
2021/08/16 06:16:26;;;;;;;;;1.25;1.25;;;;;21.63;50.79;101086.72;5003226;28;46319;-80
2021/08/16 06:18:51;;;;;;;;;1.00;1.00;;;;;21.66;51.56;101089.22;5003174;28;45304;-80
2021/08/16 06:21:18;;;;;;;;;0.00;0.00;;;;;21.68;51.46;101098.13;5003121;28;45303;-80
2021/08/16 06:23:43;;;;;;;;;0.50;0.25;;;;;21.70;51.69;101098.91;5002953;28;45552;-79
2021/08/16 06:26:09;;;;;;;;;0.50;0.50;;;;;21.67;51.60;101096.41;5002813;28;46230;-80
2021/08/16 06:28:34;;;;;;;;;1.00;1.00;;;;;21.67;51.50;101095.53;5003123;28;45294;-79
2021/08/16 06:30:59;;;;;;;;;0.50;0.50;;;;;21.65;51.71;101088.38;5003336;28;45355;-79
2021/08/16 06:33:25;;;;;;;;;0.50;0.50;;;;;21.73;51.75;101095.94;5002852;28;45556;-80
2021/08/16 06:35:51;;;;;;;;;1.00;1.00;;;;;21.70;51.24;101085.31;5003000;28;45977;-79
2021/08/16 06:38:24;;;;;;;;;0.00;0.00;;;;;21.77;51.93;101099.31;5002869;28;45377;-80
2021/08/16 06:40:51;;;;;;;;;1.00;1.00;;;;;21.79;51.61;101109.06;5003115;28;45399;-81
2021/08/16 06:43:17;;;;;;;;;1.00;1.00;;;;;21.77;51.38;101110.19;5002746;28;45210;-80
2021/08/16 06:45:42;;;;;;;;;4.00;1.00;;;;;21.78;51.78;101115.47;5002669;28;46103;-80
2021/08/16 06:48:08;;;;;;;;;1.00;0.25;;;;;21.76;51.35;101116.59;5002786;28;45269;-78
2021/08/16 06:50:33;;;;;;;;;1.00;1.00;;;;;21.71;51.76;101121.50;5002802;28;45470;-79
2021/08/16 06:52:59;;;;;;;;;0.75;0.00;;;;;21.71;51.42;101130.50;5002630;28;45301;-81
2021/08/16 06:55:24;;;;;;;;;1.00;1.00;;;;;21.71;52.13;101113.34;5002264;28;45385;-79
2021/08/16 06:57:49;;;;;;;;;1.00;1.00;;;;;21.70;51.65;101114.31;5002819;28;45449;-81
2021/08/16 07:00:15;;;;;;;;;1.50;1.00;;;;;21.70;51.90;101119.75;5002751;28;45287;-80
2021/08/16 07:02:41;;;;;;;;;0.00;0.00;;;;;21.63;51.86;101109.34;5002280;28;45661;-79
2021/08/16 07:05:10;;;;;;;;;1.00;1.00;;;;;21.67;52.23;101117.25;5002429;28;45413;-80
2021/08/16 07:07:36;;;;;;;;;0.00;0.00;;;;;21.67;52.23;101123.56;5002289;28;45327;-80
2021/08/16 07:10:03;;;;;;;;;0.25;0.00;;;;;21.57;52.45;101108.94;5001347;28;45411;-81
2021/08/16 07:12:28;;;;;;;;;1.25;0.00;;;;;21.65;52.59;101122.78;5001282;28;45473;-79
2021/08/16 07:14:54;;;;;;;;;2.50;1.00;;;;;21.65;52.58;101120.97;5002357;28;45985;-80
2021/08/16 07:17:20;;;;;;;;;0.00;0.00;;;;;21.63;52.53;101124.75;5002384;28;45220;-81
2021/08/16 07:19:45;;;;;;;;;0.25;0.25;;;;;21.65;52.51;101131.84;5002394;28;45273;-80
2021/08/16 07:22:10;;;;;;;;;0.00;0.00;;;;;21.70;52.56;101127.91;5002311;28;45239;-80
2021/08/16 07:24:36;;;;;;;;;1.00;0.25;;;;;21.70;52.84;101139.66;5001961;28;45303;-80
2021/08/16 07:27:01;;;;;;;;;1.75;0.75;;;;;21.71;52.70;101132.38;5002067;28;49382;-79
2021/08/16 07:29:29;;;;;;;;;1.75;1.75;;;;;21.65;52.68;101126.41;5002359;28;45355;-79
2021/08/16 07:31:55;;;;;;;;;0.00;0.00;;;;;21.70;53.21;101133.34;5002204;28;45352;-79
2021/08/16 07:34:21;;;;;;;;;1.75;0.00;;;;;21.68;53.66;101138.03;5000415;28;47473;-78
2021/08/16 07:36:48;;;;;;;;;0.00;0.00;;;;;21.70;53.44;101131.50;5001797;28;45547;-80
2021/08/16 07:39:14;;;;;;;;;0.00;0.00;;;;;21.66;53.42;101140.84;5002199;28;45430;-80
2021/08/16 07:41:39;;;;;;;;;0.00;0.00;;;;;21.60;53.96;101133.13;5002171;28;45195;-80
2021/08/16 07:44:05;;;;;;;;;0.50;0.50;;;;;21.65;53.71;101140.00;5001638;28;45770;-80
2021/08/16 07:46:30;;;;;;;;;1.00;1.00;;;;;21.56;54.05;101135.22;4997478;28;45517;-81
2021/08/16 07:48:55;;;;;;;;;0.00;0.00;;;;;21.65;53.92;101145.41;4998411;28;45354;-80
2021/08/16 07:51:21;;;;;;;;;0.00;0.00;;;;;21.64;53.90;101150.97;5001770;28;53439;-81
2021/08/16 07:53:49;;;;;;;;;1.00;1.00;;;;;21.59;53.44;101148.56;5001409;28;46136;-82
2021/08/16 07:56:15;;;;;;;;;0.75;0.00;;;;;21.61;54.07;101156.63;5001602;28;45407;-79
2021/08/16 07:58:40;;;;;;;;;0.25;0.25;;;;;21.57;53.85;101147.81;5001744;28;45308;-79
2021/08/16 08:01:05;;;;;;;;;1.50;1.00;;;;;21.55;54.36;101148.91;5001864;28;45316;-79
2021/08/16 08:03:31;;;;;;;;;0.25;0.25;;;;;21.55;54.32;101146.19;5001369;28;45311;-81
2021/08/16 08:05:56;;;;;;;;;0.00;0.00;;;;;21.57;54.63;101153.25;5001743;28;45256;-81
2021/08/16 08:08:21;;;;;;;;;0.00;0.00;;;;;21.57;54.46;101149.69;5001436;28;45265;-81
2021/08/16 08:10:47;;;;;;;;;1.00;1.00;;;;;21.57;54.58;101150.53;5001776;28;45551;-79
2021/08/16 08:13:14;;;;;;;;;0.00;0.00;;;;;21.60;55.02;101157.59;5001380;28;46196;-79
2021/08/16 08:15:39;;;;;;;;;0.00;0.00;;;;;21.58;54.51;101149.53;5001637;28;45352;-81
2021/08/16 08:18:05;;;;;;;;;0.00;0.00;;;;;21.63;54.67;101151.94;5001461;28;45300;-79
2021/08/16 08:20:30;;;;;;;;;0.50;0.50;;;;;21.66;54.90;101143.56;5001155;28;45404;-79
2021/08/16 08:22:55;;;;;;;;;0.75;0.75;;;;;21.68;54.58;101152.47;5000983;28;46027;-81
2021/08/16 08:25:21;;;;;;;;;1.00;0.00;;;;;21.71;54.08;101152.25;5001392;28;45348;-79
2021/08/16 08:27:46;;;;;;;;;0.00;0.00;;;;;21.74;54.87;101160.19;5001315;28;45392;-80
2021/08/16 08:30:12;;;;;;;;;0.00;0.00;;;;;21.78;54.02;101160.81;5001546;28;45268;-81
2021/08/16 08:32:52;;;;;;;;;1.75;1.75;;;;;21.80;54.57;101164.28;5000640;28;46485;-80
2021/08/16 08:35:19;;;;;;;;;0.00;0.00;;;;;21.81;54.62;101174.19;5001194;28;45412;-79
2021/08/16 08:37:45;;;;;;;;;0.25;0.25;;;;;21.81;53.89;101168.75;5000911;28;45181;-80
2021/08/16 08:40:11;;;;;;;;;0.00;0.00;;;;;21.81;54.08;101164.16;5001113;28;45323;-81
2021/08/16 08:42:37;;;;;;;;;1.00;1.00;;;;;21.74;54.58;101153.88;5000734;28;46397;-81
2021/08/16 08:45:05;;;;;;;;;1.00;0.00;;;;;21.84;54.56;101180.25;5000885;28;45416;-80
2021/08/16 08:47:33;;;;;;;;;1.00;1.00;;;;;21.87;53.90;101167.41;5000787;28;45439;-81
2021/08/16 08:49:58;;;;;;;;;0.00;0.00;;;;;21.90;54.49;101169.91;5000918;28;45438;-81
2021/08/16 08:52:24;;;;;;;;;2.00;1.00;;;;;21.90;54.68;101176.25;5000417;28;46276;-79
2021/08/16 08:54:49;;;;;;;;;2.50;1.00;;;;;21.88;54.60;101172.75;5000995;28;45185;-81
2021/08/16 08:57:19;;;;;;;;;0.75;0.50;;;;;21.91;54.70;101177.97;5000564;28;45292;-81
2021/08/16 08:59:45;;;;;;;;;0.75;0.75;;;;;21.91;54.36;101180.69;5001025;28;45295;-80
2021/08/16 09:02:12;;;;;;;;;0.50;0.50;;;;;21.92;54.13;101185.16;5000442;28;46020;-79
2021/08/16 09:04:55;;;;;;;;;2.25;0.25;;;;;21.91;54.15;101185.25;5000664;28;45228;-81
2021/08/16 09:07:31;;;;;;;;;1.00;1.00;;;;;21.92;54.69;101182.44;5000844;28;45345;-80
2021/08/16 09:09:56;;;;;;;;;0.50;0.50;;;;;21.91;54.54;101177.09;5000635;28;45237;-81
2021/08/16 09:12:35;;;;;;;;;0.00;0.00;;;;;21.91;54.31;101177.09;5000597;28;46023;-79
2021/08/16 09:15:03;;;;;;;;;0.00;0.00;;;;;21.99;54.75;101197.28;5000547;28;45392;-80
2021/08/16 09:17:33;;;;;;;;;1.00;1.00;;;;;21.98;54.60;101195.53;5000905;28;45368;-79
2021/08/16 09:20:00;;;;;;;;;1.50;1.00;;;;;22.01;54.94;101206.19;5000443;28;45418;-79
2021/08/16 09:22:32;;;;;;;;;0.00;0.00;;;;;22.02;54.67;101197.06;5000300;28;46371;-82
2021/08/16 09:25:05;;;;;;;;;2.00;0.50;;;;;22.04;54.86;101193.38;5000521;28;45241;-79
2021/08/16 09:27:31;;;;;;;;;1.00;1.00;;;;;22.07;54.16;101204.91;5000404;28;45409;-80
2021/08/16 09:29:57;;;;;;;;;2.00;1.00;;;;;22.10;54.85;101204.69;5000614;28;45177;-80
2021/08/16 09:32:31;;;;;;;;;0.00;0.00;;;;;22.09;54.91;101208.38;4999070;28;46230;-81
2021/08/16 09:35:12;;;;;;;;;0.00;0.00;;;;;22.10;54.36;101215.56;5000454;28;45292;-79
2021/08/16 09:37:40;;;;;;;;;0.00;0.00;;;;;22.12;54.87;101215.41;5000171;28;45319;-81
2021/08/16 09:40:11;;;;;;;;;0.00;0.00;;;;;22.11;54.95;101211.84;5000390;28;45323;-79
2021/08/16 09:42:46;;;;;;;;;0.75;0.50;;;;;22.11;54.79;101209.09;4999964;28;46358;-81
2021/08/16 09:45:33;;;;;;;;;1.00;1.00;;;;;22.13;55.18;101225.31;5000242;28;45383;-79
2021/08/16 09:48:00;;;;;;;;;0.00;0.00;;;;;22.14;54.74;101217.03;5000317;28;45694;-81
2021/08/16 09:50:39;;;;;;;;;0.50;0.50;;;;;22.15;54.58;101212.47;5000021;28;45316;-79
2021/08/16 09:53:11;;;;;;;;;1.00;1.00;;;;;22.17;55.01;101221.41;4999963;28;46259;-79
2021/08/16 09:55:41;;;;;;;;;1.00;1.00;;;;;22.19;54.81;101219.44;4999692;28;45372;-80
2021/08/16 09:58:08;;;;;;;;;1.00;1.00;;;;;22.18;54.45;101229.41;5000165;28;45384;-80
2021/08/16 10:00:35;;;;;;;;;2.00;1.00;;;;;22.19;54.44;101230.31;4999925;28;45328;-78
2021/08/16 10:03:03;;;;;;;;;1.00;1.00;;;;;22.18;54.40;101223.97;4999746;28;45268;-81
2021/08/16 10:05:30;;;;;;;;;0.00;0.00;;;;;22.18;54.37;101226.69;4999885;28;45336;-79
2021/08/16 10:07:59;;;;;;;;;1.00;1.00;;;;;22.20;54.88;101230.19;4999809;28;45315;-81
2021/08/16 10:10:26;;;;;;;;;1.00;1.00;;;;;22.24;54.63;101221.81;4999834;28;45464;-78
2021/08/16 10:12:52;;;;;;;;;1.00;1.00;;;;;22.26;54.76;101217.13;4999758;28;46101;-80
2021/08/16 10:15:17;;;;;;;;;3.00;2.50;;;;;22.28;55.05;101220.59;4999831;28;45320;-79
2021/08/16 10:17:44;;;;;;;;;2.25;1.50;;;;;22.32;54.65;101217.56;5000049;28;45245;-81
2021/08/16 10:20:11;;;;;;;;;1.75;1.00;;;;;22.34;54.62;101217.47;4999832;28;45176;-79
2021/08/16 10:22:38;;;;;;;;;1.00;1.00;;;;;22.35;54.64;101240.94;4999458;28;45550;-80
2021/08/16 10:25:15;;;;;;;;;1.00;1.00;;;;;22.34;56.31;101248.22;4999413;28;45358;-82
2021/08/16 10:27:41;;;;;;;;;1.00;1.00;;;;;22.32;56.60;101254.75;4999824;28;45312;-81
2021/08/16 10:30:12;;;;;;;;;3.25;2.00;;;;;22.30;57.02;101259.44;4999680;28;45790;-80
2021/08/16 10:32:38;;;;;;;;;1.75;1.75;;;;;22.26;57.13;101258.78;4999380;28;47110;-80
2021/08/16 10:35:14;;;;;;;;;1.00;1.00;;;;;22.24;57.55;101257.16;4999596;28;45344;-82
2021/08/16 10:37:44;;;;;;;;;1.00;1.00;;;;;22.21;57.19;101255.53;4999496;28;45419;-82
2021/08/16 10:40:25;;;;;;;;;3.00;1.75;;;;;22.25;56.62;101264.31;4999689;28;45244;-83
2021/08/16 10:42:55;;;;;;;;;1.50;1.50;;;;;22.23;56.55;101255.41;4999291;28;46242;-82
2021/08/16 10:45:25;;;;;;;;;0.50;0.50;;;;;22.26;56.80;101266.06;5003012;28;45480;-81
2021/08/16 10:47:59;;;;;;;;;1.00;1.00;;;;;22.25;56.41;101272.47;5002959;28;45411;-80
2021/08/16 10:50:25;;;;;;;;;3.50;1.50;;;;;22.25;57.04;101276.06;5002783;28;45375;-80
2021/08/16 10:53:00;;;;;;;;;1.00;1.00;;;;;22.21;56.75;101267.25;5002678;28;45830;-83
2021/08/16 10:55:26;;;;;;;;;2.00;2.00;;;;;22.21;57.10;101275.41;5002359;28;45511;-79
2021/08/16 10:57:53;;;;;;;;;3.25;2.00;;;;;22.23;57.70;101274.44;4994189;28;45292;-82
2021/08/16 11:00:18;;;;;;;;;1.25;1.25;;;;;22.24;56.71;101270.75;4998761;28;45428;-79
2021/08/16 11:02:44;;;;;;;;;3.00;2.00;;;;;22.25;56.68;101275.19;5002445;28;46537;-81
2021/08/16 11:05:11;;;;;;;;;0.25;0.25;;;;;22.29;56.65;101279.47;5002653;28;45230;-81
2021/08/16 11:07:37;;;;;;;;;1.50;1.50;;;;;22.31;56.04;101280.22;5002425;28;45359;-82
2021/08/16 11:10:07;;;;;;;;;1.00;1.00;;;;;22.32;55.38;101281.94;5002677;28;45311;-81
2021/08/16 11:12:39;;;;;;;;;2.00;2.00;;;;;22.33;55.76;101291.84;5002361;28;47088;-80
2021/08/16 11:15:06;;;;;;;;;2.00;2.00;;;;;22.31;54.72;101293.84;5002298;28;45542;-82
2021/08/16 11:17:31;;;;;;;;;1.50;1.50;;;;;22.30;54.62;101292.97;5001200;28;45412;-81
2021/08/16 11:20:04;;;;;;;;;2.00;2.00;;;;;22.30;54.07;101309.28;5002524;28;45270;-80
2021/08/16 11:22:29;;;;;;;;;2.00;2.00;;;;;22.24;54.16;101303.41;5002075;28;46342;-81